sensor_id;sensor_type;location;lat;lon;timestamp;P1;durP1;ratioP1;P2;durP2;ratioP2
70414;SDS011;57837;52.064;113.478;2023-05-08T00:02:19;7.47;;;3.50;;
70414;SDS011;57837;52.064;113.478;2023-05-08T00:05:23;11.07;;;3.70;;
70414;SDS011;57837;52.064;113.478;2023-05-08T00:08:27;11.55;;;4.63;;
70414;SDS011;57837;52.064;113.478;2023-05-08T00:11:31;6.72;;;3.17;;
70414;SDS011;57837;52.064;113.478;2023-05-08T00:14:34;7.45;;;3.30;;
70414;SDS011;57837;52.064;113.478;2023-05-08T00:17:38;6.82;;;2.20;;
70414;SDS011;57837;52.064;113.478;2023-05-08T00:20:42;6.63;;;2.67;;
70414;SDS011;57837;52.064;113.478;2023-05-08T00:23:46;4.97;;;2.05;;
70414;SDS011;57837;52.064;113.478;2023-05-08T00:26:50;4.50;;;2.13;;
70414;SDS011;57837;52.064;113.478;2023-05-08T00:29:54;5.07;;;1.90;;
70414;SDS011;57837;52.064;113.478;2023-05-08T00:32:58;5.70;;;2.05;;
70414;SDS011;57837;52.064;113.478;2023-05-08T00:36:03;5.03;;;2.30;;
70414;SDS011;57837;52.064;113.478;2023-05-08T00:39:08;7.43;;;1.75;;
70414;SDS011;57837;52.064;113.478;2023-05-08T00:42:12;5.97;;;1.80;;
70414;SDS011;57837;52.064;113.478;2023-05-08T00:45:15;5.22;;;1.70;;
70414;SDS011;57837;52.064;113.478;2023-05-08T00:48:20;5.00;;;1.85;;
70414;SDS011;57837;52.064;113.478;2023-05-08T00:51:25;4.67;;;1.90;;
70414;SDS011;57837;52.064;113.478;2023-05-08T00:54:30;5.47;;;1.88;;
70414;SDS011;57837;52.064;113.478;2023-05-08T00:57:34;3.78;;;1.70;;
70414;SDS011;57837;52.064;113.478;2023-05-08T01:00:40;4.78;;;2.10;;
70414;SDS011;57837;52.064;113.478;2023-05-08T01:03:44;4.13;;;2.83;;
70414;SDS011;57837;52.064;113.478;2023-05-08T01:06:48;7.10;;;2.93;;
70414;SDS011;57837;52.064;113.478;2023-05-08T01:09:52;5.82;;;2.70;;
70414;SDS011;57837;52.064;113.478;2023-05-08T01:16:45;6.20;;;1.80;;
70414;SDS011;57837;52.064;113.478;2023-05-08T01:20:25;6.50;;;1.80;;
70414;SDS011;57837;52.064;113.478;2023-05-08T01:26:57;7.28;;;2.08;;
70414;SDS011;57837;52.064;113.478;2023-05-08T01:33:46;5.95;;;1.73;;
70414;SDS011;57837;52.064;113.478;2023-05-08T01:36:58;5.45;;;2.05;;
70414;SDS011;57837;52.064;113.478;2023-05-08T01:43:30;4.43;;;1.50;;
70414;SDS011;57837;52.064;113.478;2023-05-08T01:46:41;6.30;;;4.00;;
70414;SDS011;57837;52.064;113.478;2023-05-08T01:49:49;6.53;;;2.00;;
70414;SDS011;57837;52.064;113.478;2023-05-08T01:53:12;3.13;;;1.50;;
70414;SDS011;57837;52.064;113.478;2023-05-08T01:56:22;4.90;;;2.03;;
70414;SDS011;57837;52.064;113.478;2023-05-08T01:59:27;4.50;;;1.55;;
70414;SDS011;57837;52.064;113.478;2023-05-08T02:02:34;5.68;;;1.30;;
70414;SDS011;57837;52.064;113.478;2023-05-08T02:05:41;4.45;;;2.00;;
70414;SDS011;57837;52.064;113.478;2023-05-08T02:08:46;7.80;;;2.40;;
70414;SDS011;57837;52.064;113.478;2023-05-08T02:11:51;6.07;;;1.37;;
70414;SDS011;57837;52.064;113.478;2023-05-08T02:14:56;6.55;;;1.40;;
70414;SDS011;57837;52.064;113.478;2023-05-08T02:18:04;3.88;;;1.60;;
70414;SDS011;57837;52.064;113.478;2023-05-08T02:21:10;7.43;;;1.80;;
70414;SDS011;57837;52.064;113.478;2023-05-08T02:24:14;5.20;;;1.60;;
70414;SDS011;57837;52.064;113.478;2023-05-08T02:27:19;4.43;;;1.70;;
70414;SDS011;57837;52.064;113.478;2023-05-08T02:30:25;8.25;;;2.20;;
70414;SDS011;57837;52.064;113.478;2023-05-08T02:33:31;7.97;;;1.55;;
70414;SDS011;57837;52.064;113.478;2023-05-08T02:36:34;4.93;;;2.13;;
70414;SDS011;57837;52.064;113.478;2023-05-08T02:39:39;9.80;;;2.30;;
70414;SDS011;57837;52.064;113.478;2023-05-08T02:42:47;6.23;;;2.30;;
70414;SDS011;57837;52.064;113.478;2023-05-08T02:52:24;10.13;;;1.88;;
70414;SDS011;57837;52.064;113.478;2023-05-08T02:55:47;10.13;;;2.20;;
70414;SDS011;57837;52.064;113.478;2023-05-08T02:59:16;4.43;;;1.73;;
70414;SDS011;57837;52.064;113.478;2023-05-08T03:06:02;5.00;;;2.60;;
70414;SDS011;57837;52.064;113.478;2023-05-08T03:09:19;3.97;;;1.60;;
70414;SDS011;57837;52.064;113.478;2023-05-08T03:12:26;4.22;;;1.35;;
70414;SDS011;57837;52.064;113.478;2023-05-08T03:15:43;6.73;;;1.63;;
70414;SDS011;57837;52.064;113.478;2023-05-08T03:18:48;4.55;;;1.50;;
70414;SDS011;57837;52.064;113.478;2023-05-08T03:21:54;8.65;;;2.05;;
70414;SDS011;57837;52.064;113.478;2023-05-08T03:24:59;4.45;;;1.50;;
70414;SDS011;57837;52.064;113.478;2023-05-08T03:28:08;20.10;;;2.90;;
70414;SDS011;57837;52.064;113.478;2023-05-08T03:31:13;12.20;;;2.17;;
70414;SDS011;57837;52.064;113.478;2023-05-08T03:34:20;6.43;;;1.70;;
70414;SDS011;57837;52.064;113.478;2023-05-08T03:37:28;9.55;;;1.77;;
70414;SDS011;57837;52.064;113.478;2023-05-08T03:40:32;13.68;;;1.75;;
70414;SDS011;57837;52.064;113.478;2023-05-08T03:43:44;14.98;;;1.95;;
70414;SDS011;57837;52.064;113.478;2023-05-08T03:46:48;5.83;;;1.43;;
70414;SDS011;57837;52.064;113.478;2023-05-08T03:49:55;5.65;;;1.40;;
70414;SDS011;57837;52.064;113.478;2023-05-08T03:52:59;5.28;;;1.55;;
70414;SDS011;57837;52.064;113.478;2023-05-08T03:56:03;9.07;;;1.60;;
70414;SDS011;57837;52.064;113.478;2023-05-08T04:05:55;9.40;;;1.55;;
70414;SDS011;57837;52.064;113.478;2023-05-08T04:09:17;10.70;;;0.93;;
70414;SDS011;57837;52.064;113.478;2023-05-08T04:12:32;12.50;;;1.13;;
70414;SDS011;57837;52.064;113.478;2023-05-08T04:19:09;4.82;;;1.17;;
70414;SDS011;57837;52.064;113.478;2023-05-08T04:22:16;9.38;;;1.88;;
70414;SDS011;57837;52.064;113.478;2023-05-08T04:25:23;6.95;;;1.48;;
70414;SDS011;57837;52.064;113.478;2023-05-08T04:28:27;23.38;;;2.53;;
70414;SDS011;57837;52.064;113.478;2023-05-08T04:31:33;6.87;;;1.50;;
70414;SDS011;57837;52.064;113.478;2023-05-08T04:34:38;7.30;;;1.00;;
70414;SDS011;57837;52.064;113.478;2023-05-08T04:37:41;4.90;;;0.60;;
70414;SDS011;57837;52.064;113.478;2023-05-08T04:40:46;8.40;;;0.80;;
70414;SDS011;57837;52.064;113.478;2023-05-08T04:43:50;5.72;;;0.65;;
70414;SDS011;57837;52.064;113.478;2023-05-08T04:46:53;2.30;;;0.87;;
70414;SDS011;57837;52.064;113.478;2023-05-08T04:49:57;12.40;;;0.90;;
70414;SDS011;57837;52.064;113.478;2023-05-08T04:53:03;5.50;;;0.93;;
70414;SDS011;57837;52.064;113.478;2023-05-08T04:56:06;3.53;;;0.93;;
70414;SDS011;57837;52.064;113.478;2023-05-08T04:59:09;2.35;;;0.60;;
70414;SDS011;57837;52.064;113.478;2023-05-08T05:02:16;11.27;;;1.17;;
70414;SDS011;57837;52.064;113.478;2023-05-08T05:05:20;8.75;;;1.23;;
70414;SDS011;57837;52.064;113.478;2023-05-08T05:08:24;4.53;;;0.90;;
70414;SDS011;57837;52.064;113.478;2023-05-08T05:11:29;4.57;;;1.00;;
70414;SDS011;57837;52.064;113.478;2023-05-08T05:14:32;6.93;;;1.20;;
70414;SDS011;57837;52.064;113.478;2023-05-08T05:17:35;1.73;;;0.60;;
70414;SDS011;57837;52.064;113.478;2023-05-08T05:20:39;15.02;;;1.10;;
70414;SDS011;57837;52.064;113.478;2023-05-08T05:23:42;5.22;;;0.82;;
70414;SDS011;57837;52.064;113.478;2023-05-08T05:26:46;2.75;;;0.80;;
70414;SDS011;57837;52.064;113.478;2023-05-08T05:29:50;5.47;;;0.90;;
70414;SDS011;57837;52.064;113.478;2023-05-08T05:32:53;2.07;;;0.73;;
70414;SDS011;57837;52.064;113.478;2023-05-08T05:35:57;5.97;;;0.90;;
70414;SDS011;57837;52.064;113.478;2023-05-08T05:39:01;4.43;;;1.05;;
70414;SDS011;57837;52.064;113.478;2023-05-08T05:42:05;2.67;;;0.88;;
70414;SDS011;57837;52.064;113.478;2023-05-08T05:45:09;4.47;;;1.10;;
70414;SDS011;57837;52.064;113.478;2023-05-08T05:48:12;2.20;;;0.87;;
70414;SDS011;57837;52.064;113.478;2023-05-08T05:51:15;2.53;;;0.75;;
70414;SDS011;57837;52.064;113.478;2023-05-08T05:54:18;1.73;;;0.70;;
70414;SDS011;57837;52.064;113.478;2023-05-08T05:57:21;1.90;;;0.65;;
70414;SDS011;57837;52.064;113.478;2023-05-08T06:00:25;3.67;;;0.85;;
70414;SDS011;57837;52.064;113.478;2023-05-08T06:03:30;3.47;;;0.80;;
70414;SDS011;57837;52.064;113.478;2023-05-08T06:06:33;2.38;;;1.20;;
70414;SDS011;57837;52.064;113.478;2023-05-08T06:09:38;2.25;;;0.80;;
70414;SDS011;57837;52.064;113.478;2023-05-08T06:12:43;2.70;;;0.90;;
70414;SDS011;57837;52.064;113.478;2023-05-08T06:15:49;5.25;;;1.20;;
70414;SDS011;57837;52.064;113.478;2023-05-08T06:18:52;3.73;;;0.90;;
70414;SDS011;57837;52.064;113.478;2023-05-08T06:21:56;4.68;;;1.40;;
70414;SDS011;57837;52.064;113.478;2023-05-08T06:24:59;6.88;;;1.00;;
70414;SDS011;57837;52.064;113.478;2023-05-08T06:28:03;4.68;;;0.77;;
70414;SDS011;57837;52.064;113.478;2023-05-08T06:31:09;2.97;;;1.17;;
70414;SDS011;57837;52.064;113.478;2023-05-08T06:34:12;3.17;;;1.00;;
70414;SDS011;57837;52.064;113.478;2023-05-08T06:37:15;1.73;;;0.80;;
70414;SDS011;57837;52.064;113.478;2023-05-08T06:40:18;12.25;;;1.80;;
70414;SDS011;57837;52.064;113.478;2023-05-08T06:43:21;6.40;;;0.80;;
70414;SDS011;57837;52.064;113.478;2023-05-08T06:46:24;4.00;;;0.77;;
70414;SDS011;57837;52.064;113.478;2023-05-08T06:49:28;4.40;;;0.87;;
70414;SDS011;57837;52.064;113.478;2023-05-08T06:52:31;8.20;;;0.80;;
70414;SDS011;57837;52.064;113.478;2023-05-08T06:55:35;2.13;;;0.88;;
70414;SDS011;57837;52.064;113.478;2023-05-08T06:58:38;7.32;;;1.20;;
70414;SDS011;57837;52.064;113.478;2023-05-08T07:01:41;6.88;;;1.13;;
70414;SDS011;57837;52.064;113.478;2023-05-08T07:04:44;5.87;;;1.20;;
70414;SDS011;57837;52.064;113.478;2023-05-08T07:07:48;7.72;;;0.90;;
70414;SDS011;57837;52.064;113.478;2023-05-08T07:10:51;15.40;;;1.83;;
70414;SDS011;57837;52.064;113.478;2023-05-08T07:13:54;3.00;;;1.00;;
70414;SDS011;57837;52.064;113.478;2023-05-08T07:17:01;4.13;;;1.15;;
70414;SDS011;57837;52.064;113.478;2023-05-08T07:20:09;6.77;;;1.30;;
70414;SDS011;57837;52.064;113.478;2023-05-08T07:23:13;3.65;;;1.00;;
70414;SDS011;57837;52.064;113.478;2023-05-08T07:26:16;3.05;;;0.98;;
70414;SDS011;57837;52.064;113.478;2023-05-08T07:29:20;6.32;;;1.20;;
70414;SDS011;57837;52.064;113.478;2023-05-08T07:32:24;6.03;;;1.23;;
70414;SDS011;57837;52.064;113.478;2023-05-08T07:35:28;1.87;;;1.00;;
70414;SDS011;57837;52.064;113.478;2023-05-08T07:38:31;1.90;;;1.00;;
70414;SDS011;57837;52.064;113.478;2023-05-08T07:41:35;6.75;;;1.40;;
70414;SDS011;57837;52.064;113.478;2023-05-08T07:44:40;3.30;;;1.20;;
70414;SDS011;57837;52.064;113.478;2023-05-08T07:47:55;7.38;;;2.13;;
70414;SDS011;57837;52.064;113.478;2023-05-08T07:50:59;7.83;;;1.97;;
70414;SDS011;57837;52.064;113.478;2023-05-08T07:54:03;6.32;;;1.30;;
70414;SDS011;57837;52.064;113.478;2023-05-08T07:57:06;4.60;;;1.67;;
70414;SDS011;57837;52.064;113.478;2023-05-08T08:00:10;3.30;;;1.20;;
70414;SDS011;57837;52.064;113.478;2023-05-08T08:03:14;8.70;;;1.73;;
70414;SDS011;57837;52.064;113.478;2023-05-08T08:06:18;3.07;;;1.50;;
70414;SDS011;57837;52.064;113.478;2023-05-08T08:09:21;6.38;;;1.63;;
70414;SDS011;57837;52.064;113.478;2023-05-08T08:12:24;7.25;;;1.70;;
70414;SDS011;57837;52.064;113.478;2023-05-08T08:15:27;7.60;;;1.40;;
70414;SDS011;57837;52.064;113.478;2023-05-08T08:18:34;6.25;;;1.50;;
70414;SDS011;57837;52.064;113.478;2023-05-08T08:21:42;3.03;;;1.23;;
70414;SDS011;57837;52.064;113.478;2023-05-08T08:24:45;2.25;;;1.30;;
70414;SDS011;57837;52.064;113.478;2023-05-08T08:27:49;2.28;;;1.38;;
70414;SDS011;57837;52.064;113.478;2023-05-08T08:30:52;12.65;;;2.10;;
70414;SDS011;57837;52.064;113.478;2023-05-08T08:33:55;13.38;;;1.98;;
70414;SDS011;57837;52.064;113.478;2023-05-08T08:37:03;7.93;;;2.17;;
70414;SDS011;57837;52.064;113.478;2023-05-08T08:40:08;6.93;;;1.40;;
70414;SDS011;57837;52.064;113.478;2023-05-08T08:43:11;4.63;;;1.95;;
70414;SDS011;57837;52.064;113.478;2023-05-08T08:46:14;6.05;;;1.58;;
70414;SDS011;57837;52.064;113.478;2023-05-08T08:49:25;7.43;;;1.40;;
70414;SDS011;57837;52.064;113.478;2023-05-08T08:56:12;4.32;;;1.33;;
70414;SDS011;57837;52.064;113.478;2023-05-08T08:59:17;4.55;;;1.80;;
70414;SDS011;57837;52.064;113.478;2023-05-08T09:02:21;6.30;;;2.10;;
70414;SDS011;57837;52.064;113.478;2023-05-08T09:05:27;12.50;;;2.63;;
70414;SDS011;57837;52.064;113.478;2023-05-08T09:08:30;5.97;;;2.10;;
70414;SDS011;57837;52.064;113.478;2023-05-08T09:11:34;5.93;;;1.52;;
70414;SDS011;57837;52.064;113.478;2023-05-08T09:14:38;5.85;;;2.25;;
70414;SDS011;57837;52.064;113.478;2023-05-08T09:17:41;7.40;;;2.30;;
70414;SDS011;57837;52.064;113.478;2023-05-08T09:20:45;8.10;;;1.98;;
70414;SDS011;57837;52.064;113.478;2023-05-08T09:23:59;4.50;;;1.50;;
70414;SDS011;57837;52.064;113.478;2023-05-08T09:27:05;6.40;;;1.80;;
70414;SDS011;57837;52.064;113.478;2023-05-08T09:30:23;8.98;;;2.17;;
70414;SDS011;57837;52.064;113.478;2023-05-08T09:33:27;7.55;;;2.50;;
70414;SDS011;57837;52.064;113.478;2023-05-08T09:36:31;4.72;;;2.10;;
70414;SDS011;57837;52.064;113.478;2023-05-08T09:39:35;7.07;;;2.17;;
70414;SDS011;57837;52.064;113.478;2023-05-08T09:42:43;4.97;;;1.88;;
70414;SDS011;57837;52.064;113.478;2023-05-08T09:45:46;7.45;;;2.20;;
70414;SDS011;57837;52.064;113.478;2023-05-08T09:48:50;5.57;;;1.85;;
70414;SDS011;57837;52.064;113.478;2023-05-08T09:51:55;6.43;;;2.00;;
70414;SDS011;57837;52.064;113.478;2023-05-08T09:55:02;6.70;;;2.30;;
70414;SDS011;57837;52.064;113.478;2023-05-08T09:58:09;5.97;;;2.40;;
70414;SDS011;57837;52.064;113.478;2023-05-08T10:01:27;10.57;;;4.22;;
70414;SDS011;57837;52.064;113.478;2023-05-08T10:07:36;8.40;;;2.22;;
70414;SDS011;57837;52.064;113.478;2023-05-08T10:10:39;7.53;;;2.00;;
70414;SDS011;57837;52.064;113.478;2023-05-08T10:13:43;9.90;;;2.47;;
70414;SDS011;57837;52.064;113.478;2023-05-08T10:16:49;10.00;;;1.50;;
70414;SDS011;57837;52.064;113.478;2023-05-08T10:19:58;6.22;;;1.63;;
70414;SDS011;57837;52.064;113.478;2023-05-08T10:23:02;3.75;;;1.63;;
70414;SDS011;57837;52.064;113.478;2023-05-08T10:26:13;5.73;;;2.20;;
70414;SDS011;57837;52.064;113.478;2023-05-08T10:29:20;8.65;;;1.90;;
70414;SDS011;57837;52.064;113.478;2023-05-08T10:32:52;5.32;;;1.50;;
70414;SDS011;57837;52.064;113.478;2023-05-08T10:35:59;6.15;;;1.70;;
70414;SDS011;57837;52.064;113.478;2023-05-08T10:39:03;6.95;;;1.80;;
70414;SDS011;57837;52.064;113.478;2023-05-08T10:42:06;10.53;;;2.40;;
70414;SDS011;57837;52.064;113.478;2023-05-08T10:45:10;9.18;;;2.33;;
70414;SDS011;57837;52.064;113.478;2023-05-08T10:51:31;9.35;;;2.70;;
70414;SDS011;57837;52.064;113.478;2023-05-08T10:54:50;12.77;;;1.98;;
70414;SDS011;57837;52.064;113.478;2023-05-08T10:58:03;5.33;;;1.57;;
70414;SDS011;57837;52.064;113.478;2023-05-08T11:04:18;11.27;;;4.25;;
70414;SDS011;57837;52.064;113.478;2023-05-08T11:08:12;8.80;;;3.10;;
70414;SDS011;57837;52.064;113.478;2023-05-08T11:14:09;9.20;;;3.00;;
70414;SDS011;57837;52.064;113.478;2023-05-08T11:17:21;12.20;;;2.63;;
70414;SDS011;57837;52.064;113.478;2023-05-08T11:20:38;13.20;;;3.45;;
70414;SDS011;57837;52.064;113.478;2023-05-08T11:23:43;19.00;;;3.80;;
70414;SDS011;57837;52.064;113.478;2023-05-08T11:26:49;16.88;;;4.30;;
70414;SDS011;57837;52.064;113.478;2023-05-08T11:33:22;9.00;;;3.40;;
70414;SDS011;57837;52.064;113.478;2023-05-08T11:36:31;11.90;;;3.83;;
70414;SDS011;57837;52.064;113.478;2023-05-08T11:39:38;23.23;;;4.38;;
70414;SDS011;57837;52.064;113.478;2023-05-08T11:42:41;19.48;;;4.40;;
70414;SDS011;57837;52.064;113.478;2023-05-08T11:45:45;20.80;;;4.23;;
70414;SDS011;57837;52.064;113.478;2023-05-08T11:48:48;13.45;;;3.35;;
70414;SDS011;57837;52.064;113.478;2023-05-08T11:52:03;18.38;;;3.88;;
70414;SDS011;57837;52.064;113.478;2023-05-08T11:55:08;15.63;;;3.97;;
70414;SDS011;57837;52.064;113.478;2023-05-08T11:58:14;18.35;;;4.50;;
70414;SDS011;57837;52.064;113.478;2023-05-08T12:01:20;11.53;;;3.73;;
70414;SDS011;57837;52.064;113.478;2023-05-08T12:04:23;14.80;;;4.90;;
70414;SDS011;57837;52.064;113.478;2023-05-08T12:07:28;16.40;;;5.50;;
70414;SDS011;57837;52.064;113.478;2023-05-08T12:10:31;21.80;;;5.78;;
70414;SDS011;57837;52.064;113.478;2023-05-08T12:13:34;16.70;;;4.18;;
70414;SDS011;57837;52.064;113.478;2023-05-08T12:16:37;22.33;;;3.43;;
70414;SDS011;57837;52.064;113.478;2023-05-08T12:19:41;19.77;;;4.63;;
70414;SDS011;57837;52.064;113.478;2023-05-08T12:22:49;27.40;;;4.95;;
70414;SDS011;57837;52.064;113.478;2023-05-08T12:25:53;23.67;;;5.03;;
70414;SDS011;57837;52.064;113.478;2023-05-08T12:29:00;17.73;;;4.68;;
70414;SDS011;57837;52.064;113.478;2023-05-08T12:32:03;28.40;;;5.40;;
70414;SDS011;57837;52.064;113.478;2023-05-08T12:35:07;25.15;;;7.47;;
70414;SDS011;57837;52.064;113.478;2023-05-08T12:38:11;25.48;;;8.55;;
70414;SDS011;57837;52.064;113.478;2023-05-08T12:41:14;23.17;;;10.25;;
70414;SDS011;57837;52.064;113.478;2023-05-08T12:44:25;20.48;;;9.20;;
70414;SDS011;57837;52.064;113.478;2023-05-08T12:47:32;50.13;;;20.03;;
70414;SDS011;57837;52.064;113.478;2023-05-08T12:50:36;55.70;;;21.60;;
70414;SDS011;57837;52.064;113.478;2023-05-08T12:53:42;64.85;;;30.05;;
70414;SDS011;57837;52.064;113.478;2023-05-08T12:56:48;76.35;;;27.42;;
70414;SDS011;57837;52.064;113.478;2023-05-08T12:59:52;71.22;;;28.73;;
70414;SDS011;57837;52.064;113.478;2023-05-08T13:03:07;51.77;;;20.80;;
70414;SDS011;57837;52.064;113.478;2023-05-08T13:06:18;57.20;;;24.13;;
70414;SDS011;57837;52.064;113.478;2023-05-08T13:09:22;82.50;;;36.67;;
70414;SDS011;57837;52.064;113.478;2023-05-08T13:12:25;52.33;;;22.73;;
70414;SDS011;57837;52.064;113.478;2023-05-08T13:15:29;36.17;;;16.60;;
70414;SDS011;57837;52.064;113.478;2023-05-08T13:18:32;35.80;;;14.93;;
70414;SDS011;57837;52.064;113.478;2023-05-08T13:21:37;46.95;;;15.98;;
70414;SDS011;57837;52.064;113.478;2023-05-08T13:24:40;41.42;;;16.20;;
70414;SDS011;57837;52.064;113.478;2023-05-08T13:27:43;49.28;;;17.88;;
70414;SDS011;57837;52.064;113.478;2023-05-08T13:30:46;55.85;;;21.00;;
70414;SDS011;57837;52.064;113.478;2023-05-08T13:33:50;54.20;;;21.60;;
70414;SDS011;57837;52.064;113.478;2023-05-08T13:36:52;45.45;;;18.85;;
70414;SDS011;57837;52.064;113.478;2023-05-08T13:39:55;66.90;;;26.42;;
70414;SDS011;57837;52.064;113.478;2023-05-08T13:42:58;89.65;;;33.55;;
70414;SDS011;57837;52.064;113.478;2023-05-08T13:46:02;81.93;;;33.53;;
70414;SDS011;57837;52.064;113.478;2023-05-08T13:49:08;64.83;;;25.23;;
70414;SDS011;57837;52.064;113.478;2023-05-08T13:52:11;53.92;;;20.83;;
70414;SDS011;57837;52.064;113.478;2023-05-08T13:55:14;39.42;;;15.13;;
70414;SDS011;57837;52.064;113.478;2023-05-08T13:58:18;28.88;;;12.30;;
70414;SDS011;57837;52.064;113.478;2023-05-08T14:01:22;27.02;;;10.23;;
70414;SDS011;57837;52.064;113.478;2023-05-08T14:04:28;27.60;;;13.13;;
70414;SDS011;57837;52.064;113.478;2023-05-08T14:07:32;25.88;;;9.85;;
70414;SDS011;57837;52.064;113.478;2023-05-08T14:10:36;23.08;;;8.02;;
70414;SDS011;57837;52.064;113.478;2023-05-08T14:13:40;22.55;;;8.20;;
70414;SDS011;57837;52.064;113.478;2023-05-08T14:16:46;31.95;;;9.35;;
70414;SDS011;57837;52.064;113.478;2023-05-08T14:19:50;19.97;;;7.97;;
70414;SDS011;57837;52.064;113.478;2023-05-08T14:22:53;17.83;;;6.93;;
70414;SDS011;57837;52.064;113.478;2023-05-08T14:26:01;20.33;;;8.23;;
70414;SDS011;57837;52.064;113.478;2023-05-08T14:29:05;19.20;;;7.60;;
70414;SDS011;57837;52.064;113.478;2023-05-08T14:32:08;14.50;;;7.03;;
70414;SDS011;57837;52.064;113.478;2023-05-08T14:35:14;26.23;;;9.23;;
70414;SDS011;57837;52.064;113.478;2023-05-08T14:38:19;23.25;;;8.20;;
70414;SDS011;57837;52.064;113.478;2023-05-08T14:41:22;27.38;;;6.53;;
70414;SDS011;57837;52.064;113.478;2023-05-08T14:44:30;16.30;;;6.25;;
70414;SDS011;57837;52.064;113.478;2023-05-08T14:47:33;16.75;;;6.40;;
70414;SDS011;57837;52.064;113.478;2023-05-08T14:50:36;16.60;;;6.27;;
70414;SDS011;57837;52.064;113.478;2023-05-08T14:53:39;17.25;;;7.68;;
70414;SDS011;57837;52.064;113.478;2023-05-08T14:56:44;15.48;;;7.28;;
70414;SDS011;57837;52.064;113.478;2023-05-08T14:59:48;16.98;;;7.13;;
70414;SDS011;57837;52.064;113.478;2023-05-08T15:02:55;18.55;;;7.60;;
70414;SDS011;57837;52.064;113.478;2023-05-08T15:05:59;17.13;;;7.77;;
70414;SDS011;57837;52.064;113.478;2023-05-08T15:09:02;24.33;;;9.60;;
70414;SDS011;57837;52.064;113.478;2023-05-08T15:12:05;24.35;;;8.70;;
70414;SDS011;57837;52.064;113.478;2023-05-08T15:15:09;16.77;;;7.13;;
70414;SDS011;57837;52.064;113.478;2023-05-08T15:18:13;18.65;;;7.57;;
70414;SDS011;57837;52.064;113.478;2023-05-08T15:21:16;19.40;;;7.00;;
70414;SDS011;57837;52.064;113.478;2023-05-08T15:24:22;18.77;;;7.80;;
70414;SDS011;57837;52.064;113.478;2023-05-08T15:27:25;19.35;;;8.20;;
70414;SDS011;57837;52.064;113.478;2023-05-08T15:30:28;18.33;;;7.35;;
70414;SDS011;57837;52.064;113.478;2023-05-08T15:33:32;13.82;;;6.85;;
70414;SDS011;57837;52.064;113.478;2023-05-08T15:36:35;19.30;;;8.67;;
70414;SDS011;57837;52.064;113.478;2023-05-08T15:39:38;16.55;;;7.60;;
70414;SDS011;57837;52.064;113.478;2023-05-08T15:42:41;18.45;;;8.38;;
70414;SDS011;57837;52.064;113.478;2023-05-08T15:45:45;22.77;;;8.77;;
70414;SDS011;57837;52.064;113.478;2023-05-08T15:48:48;23.08;;;8.57;;
70414;SDS011;57837;52.064;113.478;2023-05-08T15:51:51;20.43;;;8.57;;
70414;SDS011;57837;52.064;113.478;2023-05-08T15:54:55;42.50;;;14.90;;
70414;SDS011;57837;52.064;113.478;2023-05-08T15:57:59;35.42;;;13.50;;
70414;SDS011;57837;52.064;113.478;2023-05-08T16:01:03;33.08;;;12.52;;
70414;SDS011;57837;52.064;113.478;2023-05-08T16:04:31;56.63;;;21.45;;
70414;SDS011;57837;52.064;113.478;2023-05-08T16:07:34;47.40;;;17.93;;
70414;SDS011;57837;52.064;113.478;2023-05-08T16:10:38;49.50;;;19.17;;
70414;SDS011;57837;52.064;113.478;2023-05-08T16:13:41;37.15;;;15.82;;
70414;SDS011;57837;52.064;113.478;2023-05-08T16:16:45;48.08;;;18.15;;
70414;SDS011;57837;52.064;113.478;2023-05-08T16:19:48;29.85;;;13.20;;
70414;SDS011;57837;52.064;113.478;2023-05-08T16:22:52;26.13;;;12.07;;
70414;SDS011;57837;52.064;113.478;2023-05-08T16:25:56;22.55;;;8.98;;
70414;SDS011;57837;52.064;113.478;2023-05-08T16:29:00;17.33;;;7.57;;
70414;SDS011;57837;52.064;113.478;2023-05-08T16:32:02;19.38;;;8.63;;
70414;SDS011;57837;52.064;113.478;2023-05-08T16:35:06;19.23;;;7.47;;
70414;SDS011;57837;52.064;113.478;2023-05-08T16:38:09;17.33;;;7.30;;
70414;SDS011;57837;52.064;113.478;2023-05-08T16:41:13;22.83;;;7.40;;
70414;SDS011;57837;52.064;113.478;2023-05-08T16:44:16;24.98;;;7.65;;
70414;SDS011;57837;52.064;113.478;2023-05-08T16:47:19;16.73;;;6.57;;
70414;SDS011;57837;52.064;113.478;2023-05-08T16:50:23;15.30;;;5.82;;
70414;SDS011;57837;52.064;113.478;2023-05-08T16:53:26;12.67;;;4.40;;
70414;SDS011;57837;52.064;113.478;2023-05-08T16:56:30;10.88;;;4.00;;
70414;SDS011;57837;52.064;113.478;2023-05-08T16:59:33;10.13;;;3.85;;
70414;SDS011;57837;52.064;113.478;2023-05-08T17:02:36;8.00;;;3.20;;
70414;SDS011;57837;52.064;113.478;2023-05-08T17:05:40;8.63;;;3.50;;
70414;SDS011;57837;52.064;113.478;2023-05-08T17:08:44;15.93;;;4.73;;
70414;SDS011;57837;52.064;113.478;2023-05-08T17:11:48;9.95;;;4.20;;
70414;SDS011;57837;52.064;113.478;2023-05-08T17:14:52;11.90;;;4.80;;
70414;SDS011;57837;52.064;113.478;2023-05-08T17:17:55;10.43;;;4.05;;
70414;SDS011;57837;52.064;113.478;2023-05-08T17:20:58;8.27;;;3.65;;
70414;SDS011;57837;52.064;113.478;2023-05-08T17:24:01;8.27;;;3.77;;
70414;SDS011;57837;52.064;113.478;2023-05-08T17:27:05;17.83;;;6.63;;
70414;SDS011;57837;52.064;113.478;2023-05-08T17:30:09;19.95;;;7.40;;
70414;SDS011;57837;52.064;113.478;2023-05-08T17:33:14;14.65;;;6.72;;
70414;SDS011;57837;52.064;113.478;2023-05-08T17:36:17;16.23;;;7.10;;
70414;SDS011;57837;52.064;113.478;2023-05-08T17:39:21;19.77;;;6.83;;
70414;SDS011;57837;52.064;113.478;2023-05-08T17:42:24;29.13;;;10.07;;
70414;SDS011;57837;52.064;113.478;2023-05-08T17:45:28;17.70;;;5.32;;
70414;SDS011;57837;52.064;113.478;2023-05-08T17:48:31;14.57;;;4.85;;
70414;SDS011;57837;52.064;113.478;2023-05-08T17:51:35;10.65;;;5.35;;
70414;SDS011;57837;52.064;113.478;2023-05-08T17:54:39;16.20;;;4.77;;
70414;SDS011;57837;52.064;113.478;2023-05-08T17:57:43;9.18;;;3.42;;
70414;SDS011;57837;52.064;113.478;2023-05-08T18:00:45;10.95;;;3.65;;
70414;SDS011;57837;52.064;113.478;2023-05-08T18:03:48;12.88;;;4.53;;
70414;SDS011;57837;52.064;113.478;2023-05-08T18:06:53;12.00;;;4.38;;
70414;SDS011;57837;52.064;113.478;2023-05-08T18:09:56;8.27;;;3.90;;
70414;SDS011;57837;52.064;113.478;2023-05-08T18:12:59;11.48;;;3.60;;
70414;SDS011;57837;52.064;113.478;2023-05-08T18:16:03;6.57;;;3.30;;
70414;SDS011;57837;52.064;113.478;2023-05-08T18:19:06;8.60;;;4.00;;
70414;SDS011;57837;52.064;113.478;2023-05-08T18:22:09;12.15;;;3.50;;
70414;SDS011;57837;52.064;113.478;2023-05-08T18:25:13;7.87;;;3.47;;
70414;SDS011;57837;52.064;113.478;2023-05-08T18:28:17;9.18;;;3.75;;
70414;SDS011;57837;52.064;113.478;2023-05-08T18:31:20;10.20;;;4.22;;
70414;SDS011;57837;52.064;113.478;2023-05-08T18:34:24;11.35;;;5.00;;
70414;SDS011;57837;52.064;113.478;2023-05-08T18:37:28;8.27;;;4.32;;
70414;SDS011;57837;52.064;113.478;2023-05-08T18:40:32;11.03;;;4.80;;
70414;SDS011;57837;52.064;113.478;2023-05-08T18:43:35;9.43;;;4.13;;
70414;SDS011;57837;52.064;113.478;2023-05-08T18:46:38;10.27;;;3.95;;
70414;SDS011;57837;52.064;113.478;2023-05-08T18:49:41;13.95;;;4.10;;